createdAt,value
2019-01-29T00:09:01.138Z,0.4
2019-01-29T00:25:01.133Z,0.4
2019-01-29T00:30:01.335Z,0.4
2019-01-29T00:40:01.659Z,0.5
2019-01-29T00:45:01.141Z,0.5
2019-01-29T00:55:01.268Z,0.6
2019-01-29T01:00:01.150Z,0.7
2019-01-29T01:10:01.173Z,0.7
2019-01-29T01:15:01.033Z,0.7
2019-01-29T01:20:00.976Z,0.6
2019-01-29T01:30:06.041Z,0.6
2019-01-29T01:45:01.010Z,0.6
2019-01-29T02:00:01.098Z,0.5
2019-01-29T02:15:00.999Z,0.5
2019-01-29T02:30:01.118Z,0.5
2019-01-29T02:45:01.120Z,0.5
2019-01-29T03:00:01.130Z,0.5
2019-01-29T03:25:01.072Z,0.5
2019-01-29T03:30:00.998Z,0.5
2019-01-29T03:45:02.123Z,0.5
2019-01-29T03:55:01.080Z,0.4
2019-01-29T04:00:01.011Z,0.4
2019-01-29T04:10:01.082Z,0.5
2019-01-29T04:15:01.080Z,0.4
2019-01-29T04:30:01.162Z,0.4
2019-01-29T04:45:01.097Z,0.4
2019-01-29T05:00:01.149Z,0.4
2019-01-29T05:15:01.115Z,0.3
2019-01-29T05:30:01.105Z,0.3
2019-01-29T05:35:01.239Z,0.4
2019-01-29T05:45:02.186Z,0.4
2019-01-29T06:00:01.112Z,0.3
2019-01-29T06:15:02.087Z,0.3
2019-01-29T06:30:01.311Z,0.4
2019-01-29T06:36:02.042Z,0.5
2019-01-29T06:41:01.138Z,0.4
2019-01-29T06:56:01.207Z,0.4
2019-01-29T07:01:01.163Z,0.3
2019-01-29T07:06:01.270Z,0.4
2019-01-29T07:21:01.271Z,0.5
2019-01-29T07:36:01.194Z,0.4
2019-01-29T07:51:01.264Z,0.4
2019-01-29T08:06:01.204Z,0.3
2019-01-29T08:21:01.131Z,0.3
2019-01-29T08:26:01.210Z,0.2
2019-01-29T08:41:01.193Z,0.3
2019-01-29T08:56:01.199Z,0.3
2019-01-29T09:11:01.138Z,0.3
2019-01-29T09:16:01.269Z,0.4
2019-01-29T09:21:01.136Z,0.3
2019-01-29T09:31:01.204Z,0.2
2019-01-29T09:46:01.270Z,0.2
2019-01-29T10:01:01.145Z,0.2
2019-01-29T10:17:01.733Z,0.3
2019-01-29T10:32:01.199Z,0.3
2019-01-29T10:42:01.275Z,0.2
2019-01-29T10:52:01.207Z,0.1
2019-01-29T11:07:01.215Z,0.1
2019-01-29T11:17:01.204Z,0.2
2019-01-29T11:32:01.266Z,0.2
2019-01-29T11:47:01.207Z,0.2
2019-01-29T12:02:01.267Z,0.2
2019-01-29T12:17:01.275Z,0.2
2019-01-29T12:27:01.210Z,0.3
2019-01-29T12:42:01.220Z,0.4
2019-01-29T12:47:01.259Z,0.3
2019-01-29T13:02:01.259Z,0.4
2019-01-29T13:17:01.269Z,0.4
2019-01-29T13:32:01.282Z,0.3
2019-01-29T13:47:01.283Z,0.3
2019-01-29T13:57:01.253Z,0.4
2019-01-29T14:12:01.268Z,0.4
2019-01-29T14:17:01.201Z,0.3
2019-01-29T14:32:01.145Z,0.3
2019-01-29T14:47:01.196Z,0.3
2019-01-29T14:52:06.147Z,0.4
2019-01-29T15:07:01.239Z,0.4
2019-01-29T15:22:02.805Z,0.4
2019-01-29T15:32:01.327Z,0.5
2019-01-29T15:37:01.136Z,0.4
2019-01-29T15:52:01.266Z,0.4
2019-01-29T16:02:01.211Z,0.5
2019-01-29T16:17:01.225Z,0.5
2019-01-29T16:32:01.266Z,0.4
2019-01-29T16:37:01.134Z,0.5
2019-01-29T16:52:02.128Z,0.5
2019-01-29T16:57:01.208Z,0.6
2019-01-29T17:02:01.163Z,0.5
2019-01-29T17:12:01.190Z,0.6
2019-01-29T17:22:01.193Z,0.7
2019-01-29T17:27:01.202Z,0.8
2019-01-29T17:42:01.326Z,0.8
2019-01-29T17:53:01.202Z,0.7
2019-01-29T17:58:01.258Z,0.8
2019-01-29T18:13:01.268Z,0.9
2019-01-29T18:28:01.609Z,1.0
2019-01-29T18:38:01.215Z,1.1
2019-01-29T18:53:01.250Z,1.1
2019-01-29T18:58:11.124Z,1.2
2019-01-29T19:03:01.131Z,1.1
2019-01-29T19:08:01.262Z,1.2
2019-01-29T19:23:01.269Z,1.2
2019-01-29T19:28:01.273Z,1.3
2019-01-29T19:43:01.211Z,1.3
2019-01-29T19:58:08.610Z,1.3
2019-01-29T20:08:06.172Z,1.4
2019-01-29T20:13:01.167Z,1.3
2019-01-29T20:18:01.216Z,1.4
2019-01-29T20:23:07.554Z,1.3
2019-01-29T20:38:01.271Z,1.3
2019-01-29T20:43:01.147Z,1.4
2019-01-29T20:58:01.239Z,1.4
2019-01-29T21:08:01.204Z,1.5
2019-01-29T21:13:01.145Z,1.6
2019-01-29T21:18:01.268Z,1.7
2019-01-29T21:23:01.146Z,1.8
2019-01-29T21:38:01.199Z,1.9
2019-01-29T21:53:01.202Z,1.9
2019-01-29T21:58:02.575Z,1.8
2019-01-29T22:03:01.145Z,1.7
2019-01-29T22:13:01.161Z,1.6
2019-01-29T22:19:01.281Z,1.7
2019-01-29T22:34:01.209Z,1.6
2019-01-29T22:44:01.763Z,1.7
2019-01-29T22:59:01.130Z,1.8
2019-01-29T23:09:01.265Z,1.9
2019-01-29T23:14:02.147Z,1.8
2019-01-29T23:29:01.202Z,1.8
2019-01-29T23:39:01.219Z,1.9
2019-01-29T23:44:01.199Z,1.8
2019-01-29T23:54:01.153Z,1.9
